Strona główna
METAR-TAF:

METAR-TAF

Lotnisko :

Port lotniczy Kerman

Kerman, Iran

Szerokość geograficzna: 30-15N, Długość geograficzna: 056-58E, wysokość: 1748 m

Aktualna obserwacja pogody

Raport powstał 46 minut temu, godzina 11:00 UTC
Cisza
Temperatura 20°C
Wilgotność 17%
Ciśnienie 1022 hPa
Widzialność 10 km lub więcej
Mało chmury na wysokości 4000 ft
Rozproszone chmury na wysokości 20000 ft

METAR: OIKK 191100Z 00000KT 9999 FEW040 SCT200 20/M06 Q1021 A3017

czas: 15:16 (11:46 UTC)

Prognoza

Raport powstał 46 minut temu, godzina 11:00 UTC
Prognoza ważna od 19 godzina 12 UTC do 20 godzina 18 UTC
Wiatr 4 kt od wschodnio-południowy wschód
Widzialność 10 km lub więcej
Brak chmur poniżej 1500 m i brak chmur cumulonimbus
Przejściowo
od 20 godzina 06 UTC do 20 godzina 15 UTC
Widzialność: 5000 m
Rozproszone chmury na wysokości 3000 ft, Cumulonimbus.
Rozproszone chmury na wysokości 3500 ft
Przerywane chmury na wysokości 10000 ft
burza, deszcz

TAF: OIKK 191100Z 1912/2018 12004KT CAVOK TEMPO 2006/2015 5000 TSRA SCT030CB SCT035 BKN100

Obserwacja i prognoza pogody dla ponad 4000 lotnisk (raport METAR i TAF).

Dostępne stacje oznaczono żółtymi i czerwonymi punktami na mapie.

Najedź kursorem aby zobaczyć nazwę stacji.

Kliknij aby zobaczyć obserwacje i prognozy pogody.

Aby zmienić mapę: kliknij na zielony przycisk z czarnym krzyżykiem, aby powiększyć; na zielony przycisk z myślnikiem, aby pomniejszyć; na zielone strzałki, aby przejść do map sąsiednich.


METAR-TAF: